Rosette, Utah
Current Conditions -  °F | °C
As of 1:58 PM on Friday 19 Dec 2014 (Local Time) from KU16 Reporting Station
Broken Clouds Broken Clouds  
Wind Chill: 37°   Ceiling: 8000
Heat Index: 43°   Visibility: 10mi
Dew Point: 28°   Wind: 10mph
Humidity: 56%   Direction: 200°SSW
Pressure: 30.1"   Gusts: NA
Location:  41.7631°N, 113.334°W
Report Text: KU16 192058Z AUTO 20009KT 10SM BKN080 06/M02 A3010 RMK AO2 SLP816 T00611022 56017 $
Loading
Personal Weather Stations






























Interactive Weather Map New forecast layout! Learn more

10-Day Weather Forecast

Advertisements
Track Severe Weather on mobile